Hamden, Ohio
Current Conditions -  °F | °C
As of 5:35 AM on Saturday 01 Nov 2014 (Local Time) from KUNI Reporting Station
Drizzle Drizzle  
Wind Chill: 35°   Ceiling: 1100
Heat Index: 40°   Visibility: 10mi
Dew Point: 37°   Wind: 6mph
Humidity: 92%   Direction: 310°NW
Pressure: 29.94"   Gusts: NA
Location:  39.16°N, 82.53°W
Report Text: KUNI 010935Z AUTO 31005KT 10SM DZ OVC011 04/03 A2994 RMK AO2 T00420030
Loading
Personal Weather Stations






























Interactive Weather Map
Tropical Storm Tracking
New forecast layout! Learn more

10-Day Weather Forecast

Advertisements
Track Severe Weather on mobile